sensor_id;sensor_type;location;lat;lon;timestamp;P1;durP1;ratioP1;P2;durP2;ratioP2
5752;SDS011;2901;42.140;24.760;2022-09-12T00:00:24;5.35;;;5.10;;
5752;SDS011;2901;42.140;24.760;2022-09-12T00:02:51;5.20;;;4.90;;
5752;SDS011;2901;42.140;24.760;2022-09-12T00:05:17;5.28;;;5.07;;
5752;SDS011;2901;42.140;24.760;2022-09-12T00:07:43;5.25;;;5.05;;
5752;SDS011;2901;42.140;24.760;2022-09-12T00:10:09;4.88;;;4.60;;
5752;SDS011;2901;42.140;24.760;2022-09-12T00:12:34;4.85;;;4.65;;
5752;SDS011;2901;42.140;24.760;2022-09-12T00:15:00;5.13;;;4.93;;
5752;SDS011;2901;42.140;24.760;2022-09-12T00:17:25;5.15;;;4.85;;
5752;SDS011;2901;42.140;24.760;2022-09-12T00:19:51;5.32;;;5.13;;
5752;SDS011;2901;42.140;24.760;2022-09-12T00:22:17;4.63;;;4.25;;
5752;SDS011;2901;42.140;24.760;2022-09-12T00:24:42;10.85;;;5.18;;
5752;SDS011;2901;42.140;24.760;2022-09-12T00:27:07;5.18;;;4.97;;
5752;SDS011;2901;42.140;24.760;2022-09-12T00:29:33;4.53;;;4.32;;
5752;SDS011;2901;42.140;24.760;2022-09-12T00:31:58;5.15;;;4.95;;
5752;SDS011;2901;42.140;24.760;2022-09-12T00:34:24;5.07;;;4.88;;
5752;SDS011;2901;42.140;24.760;2022-09-12T00:36:49;5.95;;;5.63;;
5752;SDS011;2901;42.140;24.760;2022-09-12T00:39:15;5.40;;;5.13;;
5752;SDS011;2901;42.140;24.760;2022-09-12T00:41:41;5.00;;;4.78;;
5752;SDS011;2901;42.140;24.760;2022-09-12T00:49:06;5.95;;;5.65;;
5752;SDS011;2901;42.140;24.760;2022-09-12T00:51:37;6.28;;;5.97;;
5752;SDS011;2901;42.140;24.760;2022-09-12T00:54:07;6.13;;;5.68;;
5752;SDS011;2901;42.140;24.760;2022-09-12T00:56:36;5.78;;;5.47;;
5752;SDS011;2901;42.140;24.760;2022-09-12T00:59:08;6.35;;;5.95;;
5752;SDS011;2901;42.140;24.760;2022-09-12T01:01:41;5.80;;;5.55;;
5752;SDS011;2901;42.140;24.760;2022-09-12T01:04:09;4.95;;;4.75;;
5752;SDS011;2901;42.140;24.760;2022-09-12T01:06:40;5.65;;;5.45;;
5752;SDS011;2901;42.140;24.760;2022-09-12T01:09:07;6.28;;;5.97;;
5752;SDS011;2901;42.140;24.760;2022-09-12T01:11:36;6.30;;;5.90;;
5752;SDS011;2901;42.140;24.760;2022-09-12T01:14:04;6.18;;;5.80;;
5752;SDS011;2901;42.140;24.760;2022-09-12T01:16:30;6.50;;;6.20;;
5752;SDS011;2901;42.140;24.760;2022-09-12T01:32:23;5.80;;;5.60;;
5752;SDS011;2901;42.140;24.760;2022-09-12T01:35:18;5.55;;;5.30;;
5752;SDS011;2901;42.140;24.760;2022-09-12T01:44:05;5.85;;;5.65;;
5752;SDS011;2901;42.140;24.760;2022-09-12T01:46:44;5.50;;;5.30;;
5752;SDS011;2901;42.140;24.760;2022-09-12T01:49:22;5.88;;;5.68;;
5752;SDS011;2901;42.140;24.760;2022-09-12T01:52:13;5.45;;;5.25;;
5752;SDS011;2901;42.140;24.760;2022-09-12T01:54:46;5.55;;;5.20;;
5752;SDS011;2901;42.140;24.760;2022-09-12T01:57:23;5.40;;;5.15;;
5752;SDS011;2901;42.140;24.760;2022-09-12T01:59:55;5.15;;;4.78;;
5752;SDS011;2901;42.140;24.760;2022-09-12T02:02:38;5.57;;;4.80;;
5752;SDS011;2901;42.140;24.760;2022-09-12T02:05:19;5.18;;;4.88;;
5752;SDS011;2901;42.140;24.760;2022-09-12T02:07:58;5.25;;;4.93;;
5752;SDS011;2901;42.140;24.760;2022-09-12T02:10:48;5.00;;;4.80;;
5752;SDS011;2901;42.140;24.760;2022-09-12T02:13:27;4.82;;;4.50;;
5752;SDS011;2901;42.140;24.760;2022-09-12T02:16:02;5.57;;;5.07;;
5752;SDS011;2901;42.140;24.760;2022-09-12T02:18:31;5.03;;;4.78;;
5752;SDS011;2901;42.140;24.760;2022-09-12T02:21:00;4.75;;;4.45;;
5752;SDS011;2901;42.140;24.760;2022-09-12T02:23:30;4.93;;;4.63;;
5752;SDS011;2901;42.140;24.760;2022-09-12T02:26:03;5.68;;;5.15;;
5752;SDS011;2901;42.140;24.760;2022-09-12T02:28:37;8.02;;;4.45;;
5752;SDS011;2901;42.140;24.760;2022-09-12T02:31:22;5.07;;;4.85;;
5752;SDS011;2901;42.140;24.760;2022-09-12T02:39:40;4.15;;;4.00;;
5752;SDS011;2901;42.140;24.760;2022-09-12T02:42:05;5.15;;;4.70;;
5752;SDS011;2901;42.140;24.760;2022-09-12T02:44:31;3.95;;;3.83;;
5752;SDS011;2901;42.140;24.760;2022-09-12T02:47:07;4.10;;;4.00;;
5752;SDS011;2901;42.140;24.760;2022-09-12T02:49:37;3.90;;;3.75;;
5752;SDS011;2901;42.140;24.760;2022-09-12T02:52:03;4.35;;;4.03;;
5752;SDS011;2901;42.140;24.760;2022-09-12T02:54:28;4.30;;;4.18;;
5752;SDS011;2901;42.140;24.760;2022-09-12T02:56:55;4.47;;;4.28;;
5752;SDS011;2901;42.140;24.760;2022-09-12T02:59:20;4.90;;;4.70;;
5752;SDS011;2901;42.140;24.760;2022-09-12T03:09:39;3.85;;;3.53;;
5752;SDS011;2901;42.140;24.760;2022-09-12T03:15:09;4.13;;;3.70;;
5752;SDS011;2901;42.140;24.760;2022-09-12T03:20:40;3.67;;;3.58;;
5752;SDS011;2901;42.140;24.760;2022-09-12T03:23:23;3.38;;;3.28;;
5752;SDS011;2901;42.140;24.760;2022-09-12T03:25:53;3.92;;;3.83;;
5752;SDS011;2901;42.140;24.760;2022-09-12T03:28:23;4.60;;;3.13;;
5752;SDS011;2901;42.140;24.760;2022-09-12T03:30:48;3.60;;;3.40;;
5752;SDS011;2901;42.140;24.760;2022-09-12T03:33:19;3.53;;;3.42;;
5752;SDS011;2901;42.140;24.760;2022-09-12T03:35:46;3.28;;;3.17;;
5752;SDS011;2901;42.140;24.760;2022-09-12T03:38:13;6.88;;;3.05;;
5752;SDS011;2901;42.140;24.760;2022-09-12T03:40:39;2.80;;;2.70;;
5752;SDS011;2901;42.140;24.760;2022-09-12T03:43:05;2.92;;;2.83;;
5752;SDS011;2901;42.140;24.760;2022-09-12T03:45:32;3.92;;;3.63;;
5752;SDS011;2901;42.140;24.760;2022-09-12T03:47:57;3.38;;;3.17;;
5752;SDS011;2901;42.140;24.760;2022-09-12T03:50:23;3.53;;;3.22;;
5752;SDS011;2901;42.140;24.760;2022-09-12T03:52:48;2.97;;;2.88;;
5752;SDS011;2901;42.140;24.760;2022-09-12T03:55:14;5.18;;;3.03;;
5752;SDS011;2901;42.140;24.760;2022-09-12T03:57:40;3.08;;;2.90;;
5752;SDS011;2901;42.140;24.760;2022-09-12T04:00:05;3.33;;;3.15;;
5752;SDS011;2901;42.140;24.760;2022-09-12T04:02:34;6.00;;;3.20;;
5752;SDS011;2901;42.140;24.760;2022-09-12T04:05:00;2.55;;;2.45;;
5752;SDS011;2901;42.140;24.760;2022-09-12T04:07:25;2.85;;;2.75;;
5752;SDS011;2901;42.140;24.760;2022-09-12T04:09:51;2.50;;;2.30;;
5752;SDS011;2901;42.140;24.760;2022-09-12T04:12:17;2.95;;;2.85;;
5752;SDS011;2901;42.140;24.760;2022-09-12T04:14:43;2.95;;;2.85;;
5752;SDS011;2901;42.140;24.760;2022-09-12T04:17:08;2.90;;;2.75;;
5752;SDS011;2901;42.140;24.760;2022-09-12T04:19:34;2.70;;;2.60;;
5752;SDS011;2901;42.140;24.760;2022-09-12T04:21:59;3.00;;;2.90;;
5752;SDS011;2901;42.140;24.760;2022-09-12T04:24:25;2.67;;;2.47;;
5752;SDS011;2901;42.140;24.760;2022-09-12T04:26:50;3.03;;;2.92;;
5752;SDS011;2901;42.140;24.760;2022-09-12T04:29:15;3.40;;;3.20;;
5752;SDS011;2901;42.140;24.760;2022-09-12T04:31:41;3.05;;;2.90;;
5752;SDS011;2901;42.140;24.760;2022-09-12T04:34:06;3.30;;;3.20;;
5752;SDS011;2901;42.140;24.760;2022-09-12T04:36:32;5.53;;;2.80;;
5752;SDS011;2901;42.140;24.760;2022-09-12T04:38:59;2.45;;;2.25;;
5752;SDS011;2901;42.140;24.760;2022-09-12T04:41:30;3.17;;;3.08;;
5752;SDS011;2901;42.140;24.760;2022-09-12T04:43:58;2.45;;;2.35;;
5752;SDS011;2901;42.140;24.760;2022-09-12T04:46:32;3.55;;;2.35;;
5752;SDS011;2901;42.140;24.760;2022-09-12T04:49:00;2.85;;;2.72;;
5752;SDS011;2901;42.140;24.760;2022-09-12T04:51:27;2.67;;;2.50;;
5752;SDS011;2901;42.140;24.760;2022-09-12T04:53:56;2.78;;;2.28;;
5752;SDS011;2901;42.140;24.760;2022-09-12T04:56:25;3.10;;;2.22;;
5752;SDS011;2901;42.140;24.760;2022-09-12T04:58:52;2.03;;;1.92;;
5752;SDS011;2901;42.140;24.760;2022-09-12T05:01:18;2.08;;;1.98;;
5752;SDS011;2901;42.140;24.760;2022-09-12T05:03:45;2.55;;;2.20;;
5752;SDS011;2901;42.140;24.760;2022-09-12T05:06:16;3.78;;;2.30;;
5752;SDS011;2901;42.140;24.760;2022-09-12T05:08:43;2.42;;;2.05;;
5752;SDS011;2901;42.140;24.760;2022-09-12T05:11:12;2.17;;;2.08;;
5752;SDS011;2901;42.140;24.760;2022-09-12T05:13:42;2.17;;;1.90;;
5752;SDS011;2901;42.140;24.760;2022-09-12T05:16:12;3.85;;;2.28;;
5752;SDS011;2901;42.140;24.760;2022-09-12T05:18:39;3.95;;;1.90;;
5752;SDS011;2901;42.140;24.760;2022-09-12T05:21:06;3.17;;;2.47;;
5752;SDS011;2901;42.140;24.760;2022-09-12T05:23:33;3.38;;;1.98;;
5752;SDS011;2901;42.140;24.760;2022-09-12T05:25:59;4.28;;;2.10;;
5752;SDS011;2901;42.140;24.760;2022-09-12T05:28:29;1.75;;;1.65;;
5752;SDS011;2901;42.140;24.760;2022-09-12T05:31:03;2.20;;;2.10;;
5752;SDS011;2901;42.140;24.760;2022-09-12T05:33:29;2.65;;;2.15;;
5752;SDS011;2901;42.140;24.760;2022-09-12T05:35:55;3.97;;;1.80;;
5752;SDS011;2901;42.140;24.760;2022-09-12T05:38:20;4.93;;;2.15;;
5752;SDS011;2901;42.140;24.760;2022-09-12T05:40:48;3.42;;;2.17;;
5752;SDS011;2901;42.140;24.760;2022-09-12T05:43:14;4.47;;;1.60;;
5752;SDS011;2901;42.140;24.760;2022-09-12T05:45:40;1.95;;;1.85;;
5752;SDS011;2901;42.140;24.760;2022-09-12T05:48:06;3.80;;;2.30;;
5752;SDS011;2901;42.140;24.760;2022-09-12T05:50:31;2.22;;;1.92;;
5752;SDS011;2901;42.140;24.760;2022-09-12T05:52:56;7.38;;;1.88;;
5752;SDS011;2901;42.140;24.760;2022-09-12T05:55:22;2.15;;;2.05;;
5752;SDS011;2901;42.140;24.760;2022-09-12T05:57:48;2.28;;;2.17;;
5752;SDS011;2901;42.140;24.760;2022-09-12T06:00:14;3.75;;;2.08;;
5752;SDS011;2901;42.140;24.760;2022-09-12T06:02:40;1.92;;;1.83;;
5752;SDS011;2901;42.140;24.760;2022-09-12T06:05:06;2.45;;;1.70;;
5752;SDS011;2901;42.140;24.760;2022-09-12T06:07:31;3.83;;;1.55;;
5752;SDS011;2901;42.140;24.760;2022-09-12T06:09:57;2.05;;;1.83;;
5752;SDS011;2901;42.140;24.760;2022-09-12T06:12:23;1.10;;;1.10;;
5752;SDS011;2901;42.140;24.760;2022-09-12T06:14:50;2.95;;;1.40;;
5752;SDS011;2901;42.140;24.760;2022-09-12T06:17:16;1.40;;;1.17;;
5752;SDS011;2901;42.140;24.760;2022-09-12T06:19:42;3.40;;;1.58;;
5752;SDS011;2901;42.140;24.760;2022-09-12T06:22:08;1.17;;;1.17;;
5752;SDS011;2901;42.140;24.760;2022-09-12T06:24:34;3.08;;;1.38;;
5752;SDS011;2901;42.140;24.760;2022-09-12T06:26:59;1.65;;;1.55;;
5752;SDS011;2901;42.140;24.760;2022-09-12T06:29:26;1.15;;;1.15;;
5752;SDS011;2901;42.140;24.760;2022-09-12T06:31:52;4.78;;;1.33;;
5752;SDS011;2901;42.140;24.760;2022-09-12T06:34:17;2.28;;;1.30;;
5752;SDS011;2901;42.140;24.760;2022-09-12T06:36:47;1.15;;;1.15;;
5752;SDS011;2901;42.140;24.760;2022-09-12T06:39:14;2.63;;;1.30;;
5752;SDS011;2901;42.140;24.760;2022-09-12T06:41:41;3.20;;;1.42;;
5752;SDS011;2901;42.140;24.760;2022-09-12T06:44:08;2.40;;;1.38;;
5752;SDS011;2901;42.140;24.760;2022-09-12T06:46:36;3.28;;;1.50;;
5752;SDS011;2901;42.140;24.760;2022-09-12T06:49:02;1.05;;;1.05;;
5752;SDS011;2901;42.140;24.760;2022-09-12T06:51:27;1.52;;;1.25;;
5752;SDS011;2901;42.140;24.760;2022-09-12T06:53:54;1.20;;;1.20;;
5752;SDS011;2901;42.140;24.760;2022-09-12T06:56:21;5.10;;;1.63;;
5752;SDS011;2901;42.140;24.760;2022-09-12T06:58:49;1.65;;;1.55;;
5752;SDS011;2901;42.140;24.760;2022-09-12T07:01:18;3.33;;;1.30;;
5752;SDS011;2901;42.140;24.760;2022-09-12T07:03:46;3.00;;;1.20;;
5752;SDS011;2901;42.140;24.760;2022-09-12T07:06:14;1.38;;;1.27;;
5752;SDS011;2901;42.140;24.760;2022-09-12T07:08:41;1.65;;;1.25;;
5752;SDS011;2901;42.140;24.760;2022-09-12T07:11:17;2.25;;;1.23;;
5752;SDS011;2901;42.140;24.760;2022-09-12T07:13:46;2.60;;;1.40;;
5752;SDS011;2901;42.140;24.760;2022-09-12T07:16:13;2.97;;;1.38;;
5752;SDS011;2901;42.140;24.760;2022-09-12T07:18:39;0.90;;;0.90;;
5752;SDS011;2901;42.140;24.760;2022-09-12T07:21:06;1.25;;;1.10;;
5752;SDS011;2901;42.140;24.760;2022-09-12T07:23:35;1.02;;;0.98;;
5752;SDS011;2901;42.140;24.760;2022-09-12T07:26:02;2.25;;;0.80;;
5752;SDS011;2901;42.140;24.760;2022-09-12T07:28:29;1.35;;;1.25;;
5752;SDS011;2901;42.140;24.760;2022-09-12T07:30:55;1.30;;;1.02;;
5752;SDS011;2901;42.140;24.760;2022-09-12T07:33:23;1.88;;;1.13;;
5752;SDS011;2901;42.140;24.760;2022-09-12T07:35:50;2.15;;;1.10;;
5752;SDS011;2901;42.140;24.760;2022-09-12T07:38:18;1.48;;;1.38;;
5752;SDS011;2901;42.140;24.760;2022-09-12T07:40:44;5.07;;;0.95;;
5752;SDS011;2901;42.140;24.760;2022-09-12T07:43:10;1.00;;;1.00;;
5752;SDS011;2901;42.140;24.760;2022-09-12T07:45:35;4.50;;;1.80;;
5752;SDS011;2901;42.140;24.760;2022-09-12T07:48:01;3.17;;;0.93;;
5752;SDS011;2901;42.140;24.760;2022-09-12T07:50:26;0.75;;;0.70;;
5752;SDS011;2901;42.140;24.760;2022-09-12T07:52:52;1.42;;;1.08;;
5752;SDS011;2901;42.140;24.760;2022-09-12T07:55:19;0.90;;;0.90;;
5752;SDS011;2901;42.140;24.760;2022-09-12T07:57:48;1.80;;;0.70;;
5752;SDS011;2901;42.140;24.760;2022-09-12T08:00:14;2.50;;;1.10;;
5752;SDS011;2901;42.140;24.760;2022-09-12T08:02:40;3.70;;;0.88;;
5752;SDS011;2901;42.140;24.760;2022-09-12T08:05:05;2.38;;;1.13;;
5752;SDS011;2901;42.140;24.760;2022-09-12T08:07:31;0.60;;;0.60;;
5752;SDS011;2901;42.140;24.760;2022-09-12T08:09:58;0.77;;;0.60;;
5752;SDS011;2901;42.140;24.760;2022-09-12T08:12:24;0.63;;;0.63;;
5752;SDS011;2901;42.140;24.760;2022-09-12T08:14:51;0.70;;;0.70;;
5752;SDS011;2901;42.140;24.760;2022-09-12T08:17:16;0.50;;;0.50;;
5752;SDS011;2901;42.140;24.760;2022-09-12T08:19:42;1.58;;;0.70;;
5752;SDS011;2901;42.140;24.760;2022-09-12T08:22:08;0.60;;;0.60;;
5752;SDS011;2901;42.140;24.760;2022-09-12T08:24:35;0.60;;;0.60;;
5752;SDS011;2901;42.140;24.760;2022-09-12T08:27:00;0.77;;;0.77;;
5752;SDS011;2901;42.140;24.760;2022-09-12T08:29:26;2.90;;;0.90;;
5752;SDS011;2901;42.140;24.760;2022-09-12T08:31:51;0.63;;;0.63;;
5752;SDS011;2901;42.140;24.760;2022-09-12T08:34:17;0.50;;;0.50;;
5752;SDS011;2901;42.140;24.760;2022-09-12T08:36:43;0.60;;;0.60;;
5752;SDS011;2901;42.140;24.760;2022-09-12T08:39:10;0.60;;;0.60;;
5752;SDS011;2901;42.140;24.760;2022-09-12T08:41:38;2.67;;;1.30;;
5752;SDS011;2901;42.140;24.760;2022-09-12T08:44:24;0.70;;;0.70;;
5752;SDS011;2901;42.140;24.760;2022-09-12T08:52:20;0.80;;;0.80;;
5752;SDS011;2901;42.140;24.760;2022-09-12T08:54:57;2.70;;;0.70;;
5752;SDS011;2901;42.140;24.760;2022-09-12T08:57:23;0.60;;;0.60;;
5752;SDS011;2901;42.140;24.760;2022-09-12T08:59:48;0.43;;;0.43;;
5752;SDS011;2901;42.140;24.760;2022-09-12T09:05:13;2.15;;;0.50;;
5752;SDS011;2901;42.140;24.760;2022-09-12T09:10:50;0.70;;;0.70;;
5752;SDS011;2901;42.140;24.760;2022-09-12T09:13:27;0.50;;;0.50;;
5752;SDS011;2901;42.140;24.760;2022-09-12T09:16:26;2.05;;;0.73;;
5752;SDS011;2901;42.140;24.760;2022-09-12T09:18:59;2.28;;;0.60;;
5752;SDS011;2901;42.140;24.760;2022-09-12T09:21:39;1.42;;;0.60;;
5752;SDS011;2901;42.140;24.760;2022-09-12T09:24:12;0.52;;;0.52;;
5752;SDS011;2901;42.140;24.760;2022-09-12T09:26:56;0.93;;;0.77;;
5752;SDS011;2901;42.140;24.760;2022-09-12T09:29:26;0.60;;;0.60;;
5752;SDS011;2901;42.140;24.760;2022-09-12T09:31:59;0.57;;;0.52;;
5752;SDS011;2901;42.140;24.760;2022-09-12T09:34:28;1.20;;;0.63;;
5752;SDS011;2901;42.140;24.760;2022-09-12T09:44:58;0.60;;;0.60;;
5752;SDS011;2901;42.140;24.760;2022-09-12T09:47:27;3.15;;;0.57;;
5752;SDS011;2901;42.140;24.760;2022-09-12T09:49:52;1.08;;;0.65;;
5752;SDS011;2901;42.140;24.760;2022-09-12T09:52:19;1.75;;;0.68;;
5752;SDS011;2901;42.140;24.760;2022-09-12T09:54:54;0.75;;;0.75;;
5752;SDS011;2901;42.140;24.760;2022-09-12T10:03:00;1.65;;;0.85;;
5752;SDS011;2901;42.140;24.760;2022-09-12T10:05:27;1.52;;;0.70;;
5752;SDS011;2901;42.140;24.760;2022-09-12T10:07:53;0.40;;;0.40;;
5752;SDS011;2901;42.140;24.760;2022-09-12T10:10:19;2.00;;;0.70;;
5752;SDS011;2901;42.140;24.760;2022-09-12T10:12:48;0.60;;;0.50;;
5752;SDS011;2901;42.140;24.760;2022-09-12T10:15:20;2.13;;;0.50;;
5752;SDS011;2901;42.140;24.760;2022-09-12T10:17:50;0.50;;;0.50;;
5752;SDS011;2901;42.140;24.760;2022-09-12T10:20:30;2.20;;;0.50;;
5752;SDS011;2901;42.140;24.760;2022-09-12T10:22:57;2.58;;;0.60;;
5752;SDS011;2901;42.140;24.760;2022-09-12T10:25:24;0.57;;;0.57;;
5752;SDS011;2901;42.140;24.760;2022-09-12T10:27:52;0.73;;;0.52;;
5752;SDS011;2901;42.140;24.760;2022-09-12T10:30:22;0.50;;;0.50;;
5752;SDS011;2901;42.140;24.760;2022-09-12T10:32:52;0.80;;;0.80;;
5752;SDS011;2901;42.140;24.760;2022-09-12T10:35:23;0.43;;;0.43;;
5752;SDS011;2901;42.140;24.760;2022-09-12T10:38:25;0.55;;;0.55;;
5752;SDS011;2901;42.140;24.760;2022-09-12T10:40:54;0.60;;;0.60;;
5752;SDS011;2901;42.140;24.760;2022-09-12T10:45:57;0.65;;;0.65;;
5752;SDS011;2901;42.140;24.760;2022-09-12T10:48:43;2.33;;;0.68;;
5752;SDS011;2901;42.140;24.760;2022-09-12T10:51:25;1.17;;;0.50;;
5752;SDS011;2901;42.140;24.760;2022-09-12T10:53:54;1.45;;;0.70;;
5752;SDS011;2901;42.140;24.760;2022-09-12T11:09:26;1.60;;;1.05;;
5752;SDS011;2901;42.140;24.760;2022-09-12T11:12:14;0.70;;;0.70;;
5752;SDS011;2901;42.140;24.760;2022-09-12T11:28:29;0.63;;;0.63;;
5752;SDS011;2901;42.140;24.760;2022-09-12T11:34:01;1.75;;;0.80;;
5752;SDS011;2901;42.140;24.760;2022-09-12T11:39:23;0.40;;;0.40;;
5752;SDS011;2901;42.140;24.760;2022-09-12T11:41:55;0.88;;;0.88;;
5752;SDS011;2901;42.140;24.760;2022-09-12T11:44:25;0.90;;;0.90;;
5752;SDS011;2901;42.140;24.760;2022-09-12T11:46:59;0.70;;;0.70;;
5752;SDS011;2901;42.140;24.760;2022-09-12T11:49:32;1.05;;;0.80;;
5752;SDS011;2901;42.140;24.760;2022-09-12T11:52:12;0.50;;;0.50;;
5752;SDS011;2901;42.140;24.760;2022-09-12T11:54:42;1.20;;;1.10;;
5752;SDS011;2901;42.140;24.760;2022-09-12T11:59:59;0.90;;;0.90;;
5752;SDS011;2901;42.140;24.760;2022-09-12T12:02:29;1.58;;;0.80;;
5752;SDS011;2901;42.140;24.760;2022-09-12T12:07:59;1.85;;;0.70;;
5752;SDS011;2901;42.140;24.760;2022-09-12T12:12:58;0.90;;;0.90;;
5752;SDS011;2901;42.140;24.760;2022-09-12T12:15:27;1.17;;;0.85;;
5752;SDS011;2901;42.140;24.760;2022-09-12T12:18:03;0.73;;;0.73;;
5752;SDS011;2901;42.140;24.760;2022-09-12T12:20:39;2.40;;;1.45;;
5752;SDS011;2901;42.140;24.760;2022-09-12T12:23:05;0.75;;;0.73;;
5752;SDS011;2901;42.140;24.760;2022-09-12T12:25:38;0.70;;;0.70;;
5752;SDS011;2901;42.140;24.760;2022-09-12T12:31:14;3.60;;;1.25;;
5752;SDS011;2901;42.140;24.760;2022-09-12T12:36:09;1.10;;;0.93;;
5752;SDS011;2901;42.140;24.760;2022-09-12T12:38:52;1.02;;;1.02;;
5752;SDS011;2901;42.140;24.760;2022-09-12T12:43:49;0.90;;;0.90;;
5752;SDS011;2901;42.140;24.760;2022-09-12T12:46:17;0.60;;;0.60;;
5752;SDS011;2901;42.140;24.760;2022-09-12T12:48:46;1.52;;;0.70;;
5752;SDS011;2901;42.140;24.760;2022-09-12T12:51:14;0.98;;;0.98;;
5752;SDS011;2901;42.140;24.760;2022-09-12T12:53:45;2.00;;;0.98;;
5752;SDS011;2901;42.140;24.760;2022-09-12T12:56:27;0.93;;;0.80;;
5752;SDS011;2901;42.140;24.760;2022-09-12T12:58:58;0.57;;;0.57;;
5752;SDS011;2901;42.140;24.760;2022-09-12T13:01:27;0.98;;;0.90;;
5752;SDS011;2901;42.140;24.760;2022-09-12T13:06:43;1.17;;;1.10;;
5752;SDS011;2901;42.140;24.760;2022-09-12T13:11:46;1.20;;;1.20;;
5752;SDS011;2901;42.140;24.760;2022-09-12T13:14:36;1.10;;;1.00;;
5752;SDS011;2901;42.140;24.760;2022-09-12T13:20:18;1.67;;;1.58;;
5752;SDS011;2901;42.140;24.760;2022-09-12T13:22:46;2.83;;;1.20;;
5752;SDS011;2901;42.140;24.760;2022-09-12T13:30:35;2.00;;;2.00;;
5752;SDS011;2901;42.140;24.760;2022-09-12T13:44:31;2.40;;;2.22;;
5752;SDS011;2901;42.140;24.760;2022-09-12T13:47:06;3.20;;;2.65;;
5752;SDS011;2901;42.140;24.760;2022-09-12T13:49:38;2.50;;;2.40;;
5752;SDS011;2901;42.140;24.760;2022-09-12T13:52:13;2.17;;;2.08;;
5752;SDS011;2901;42.140;24.760;2022-09-12T13:54:43;2.17;;;2.08;;
5752;SDS011;2901;42.140;24.760;2022-09-12T13:59:56;2.20;;;2.10;;
5752;SDS011;2901;42.140;24.760;2022-09-12T14:02:22;3.15;;;2.83;;
5752;SDS011;2901;42.140;24.760;2022-09-12T14:04:50;2.55;;;2.45;;
5752;SDS011;2901;42.140;24.760;2022-09-12T14:07:33;3.17;;;3.05;;
5752;SDS011;2901;42.140;24.760;2022-09-12T14:10:37;2.53;;;2.42;;
5752;SDS011;2901;42.140;24.760;2022-09-12T14:13:12;2.85;;;2.70;;
5752;SDS011;2901;42.140;24.760;2022-09-12T14:15:46;2.85;;;2.70;;
5752;SDS011;2901;42.140;24.760;2022-09-12T14:18:20;2.53;;;2.42;;
5752;SDS011;2901;42.140;24.760;2022-09-12T14:20:48;2.33;;;2.22;;
5752;SDS011;2901;42.140;24.760;2022-09-12T14:23:18;2.85;;;2.75;;
5752;SDS011;2901;42.140;24.760;2022-09-12T14:25:51;2.90;;;2.75;;
5752;SDS011;2901;42.140;24.760;2022-09-12T14:28:18;4.93;;;3.30;;
5752;SDS011;2901;42.140;24.760;2022-09-12T14:31:04;3.05;;;2.85;;
5752;SDS011;2901;42.140;24.760;2022-09-12T14:33:32;5.03;;;2.90;;
5752;SDS011;2901;42.140;24.760;2022-09-12T14:38:55;3.35;;;3.17;;
5752;SDS011;2901;42.140;24.760;2022-09-12T14:41:27;3.20;;;3.00;;
5752;SDS011;2901;42.140;24.760;2022-09-12T14:43:57;2.88;;;2.78;;
5752;SDS011;2901;42.140;24.760;2022-09-12T14:48:58;7.70;;;3.80;;
5752;SDS011;2901;42.140;24.760;2022-09-12T14:51:27;5.65;;;3.03;;
5752;SDS011;2901;42.140;24.760;2022-09-12T14:53:57;3.80;;;3.03;;
5752;SDS011;2901;42.140;24.760;2022-09-12T14:56:36;4.35;;;3.92;;
5752;SDS011;2901;42.140;24.760;2022-09-12T15:07:33;3.90;;;3.13;;
5752;SDS011;2901;42.140;24.760;2022-09-12T15:10:01;3.58;;;3.47;;
5752;SDS011;2901;42.140;24.760;2022-09-12T15:12:29;3.40;;;3.20;;
5752;SDS011;2901;42.140;24.760;2022-09-12T15:15:13;3.08;;;2.97;;
5752;SDS011;2901;42.140;24.760;2022-09-12T15:17:39;4.53;;;3.08;;
5752;SDS011;2901;42.140;24.760;2022-09-12T15:20:05;4.18;;;3.90;;
5752;SDS011;2901;42.140;24.760;2022-09-12T15:22:31;3.10;;;2.90;;
5752;SDS011;2901;42.140;24.760;2022-09-12T15:24:58;3.13;;;3.03;;
5752;SDS011;2901;42.140;24.760;2022-09-12T15:27:24;4.28;;;3.80;;
5752;SDS011;2901;42.140;24.760;2022-09-12T15:29:52;3.72;;;3.53;;
5752;SDS011;2901;42.140;24.760;2022-09-12T15:32:22;4.10;;;3.90;;
5752;SDS011;2901;42.140;24.760;2022-09-12T15:34:52;3.53;;;3.30;;
5752;SDS011;2901;42.140;24.760;2022-09-12T15:37:18;3.40;;;3.30;;
5752;SDS011;2901;42.140;24.760;2022-09-12T15:39:45;4.03;;;3.83;;
5752;SDS011;2901;42.140;24.760;2022-09-12T15:42:12;3.47;;;3.25;;
5752;SDS011;2901;42.140;24.760;2022-09-12T15:44:38;3.72;;;3.42;;
5752;SDS011;2901;42.140;24.760;2022-09-12T15:47:04;3.33;;;3.22;;
5752;SDS011;2901;42.140;24.760;2022-09-12T15:49:30;3.75;;;3.50;;
5752;SDS011;2901;42.140;24.760;2022-09-12T15:51:56;3.58;;;3.47;;
5752;SDS011;2901;42.140;24.760;2022-09-12T15:54:22;3.30;;;3.20;;
5752;SDS011;2901;42.140;24.760;2022-09-12T15:56:47;3.28;;;3.17;;
5752;SDS011;2901;42.140;24.760;2022-09-12T15:59:13;3.38;;;3.10;;
5752;SDS011;2901;42.140;24.760;2022-09-12T16:01:39;2.67;;;2.58;;
5752;SDS011;2901;42.140;24.760;2022-09-12T16:04:08;3.05;;;2.92;;
5752;SDS011;2901;42.140;24.760;2022-09-12T16:06:45;3.50;;;3.40;;
5752;SDS011;2901;42.140;24.760;2022-09-12T16:09:11;3.22;;;3.13;;
5752;SDS011;2901;42.140;24.760;2022-09-12T16:11:36;3.60;;;3.40;;
5752;SDS011;2901;42.140;24.760;2022-09-12T16:14:02;5.68;;;2.67;;
5752;SDS011;2901;42.140;24.760;2022-09-12T16:16:29;3.00;;;2.90;;
5752;SDS011;2901;42.140;24.760;2022-09-12T16:18:55;4.28;;;2.95;;
5752;SDS011;2901;42.140;24.760;2022-09-12T16:21:20;3.65;;;3.33;;
5752;SDS011;2901;42.140;24.760;2022-09-12T16:23:46;6.32;;;3.33;;
5752;SDS011;2901;42.140;24.760;2022-09-12T16:26:12;3.50;;;3.40;;
5752;SDS011;2901;42.140;24.760;2022-09-12T16:28:38;3.83;;;3.50;;
5752;SDS011;2901;42.140;24.760;2022-09-12T16:31:04;3.65;;;3.35;;
5752;SDS011;2901;42.140;24.760;2022-09-12T16:33:31;2.95;;;2.85;;
5752;SDS011;2901;42.140;24.760;2022-09-12T16:36:01;3.65;;;3.50;;
5752;SDS011;2901;42.140;24.760;2022-09-12T16:38:33;3.40;;;3.30;;
5752;SDS011;2901;42.140;24.760;2022-09-12T16:41:05;3.22;;;3.13;;
5752;SDS011;2901;42.140;24.760;2022-09-12T16:43:32;3.80;;;3.70;;
5752;SDS011;2901;42.140;24.760;2022-09-12T16:46:00;5.90;;;3.80;;
5752;SDS011;2901;42.140;24.760;2022-09-12T16:48:29;6.43;;;3.65;;
5752;SDS011;2901;42.140;24.760;2022-09-12T16:50:58;3.63;;;3.47;;
5752;SDS011;2901;42.140;24.760;2022-09-12T16:53:28;7.63;;;4.22;;
5752;SDS011;2901;42.140;24.760;2022-09-12T16:55:58;4.43;;;4.05;;
5752;SDS011;2901;42.140;24.760;2022-09-12T16:58:24;3.92;;;3.83;;
5752;SDS011;2901;42.140;24.760;2022-09-12T17:00:58;4.68;;;4.47;;
5752;SDS011;2901;42.140;24.760;2022-09-12T17:03:31;4.07;;;3.97;;
5752;SDS011;2901;42.140;24.760;2022-09-12T17:05:57;4.75;;;4.40;;
5752;SDS011;2901;42.140;24.760;2022-09-12T17:08:27;4.43;;;4.30;;
5752;SDS011;2901;42.140;24.760;2022-09-12T17:10:58;5.05;;;4.82;;
5752;SDS011;2901;42.140;24.760;2022-09-12T17:13:27;5.45;;;5.15;;
5752;SDS011;2901;42.140;24.760;2022-09-12T17:15:52;4.68;;;4.47;;
5752;SDS011;2901;42.140;24.760;2022-09-12T17:18:17;5.63;;;5.10;;
5752;SDS011;2901;42.140;24.760;2022-09-12T17:20:43;5.07;;;4.88;;
5752;SDS011;2901;42.140;24.760;2022-09-12T17:23:08;4.88;;;4.55;;
5752;SDS011;2901;42.140;24.760;2022-09-12T17:25:34;5.32;;;5.13;;
5752;SDS011;2901;42.140;24.760;2022-09-12T17:28:00;5.00;;;4.70;;
5752;SDS011;2901;42.140;24.760;2022-09-12T17:30:25;4.47;;;4.18;;
5752;SDS011;2901;42.140;24.760;2022-09-12T17:32:51;5.45;;;5.15;;
5752;SDS011;2901;42.140;24.760;2022-09-12T17:35:16;5.90;;;5.50;;
5752;SDS011;2901;42.140;24.760;2022-09-12T17:37:42;4.97;;;4.68;;
5752;SDS011;2901;42.140;24.760;2022-09-12T17:40:07;4.97;;;4.68;;
5752;SDS011;2901;42.140;24.760;2022-09-12T17:42:33;4.45;;;4.03;;
5752;SDS011;2901;42.140;24.760;2022-09-12T17:45:00;4.45;;;4.25;;
5752;SDS011;2901;42.140;24.760;2022-09-12T17:47:25;4.25;;;4.15;;
5752;SDS011;2901;42.140;24.760;2022-09-12T17:49:51;4.65;;;4.32;;
5752;SDS011;2901;42.140;24.760;2022-09-12T17:52:17;4.65;;;4.45;;
5752;SDS011;2901;42.140;24.760;2022-09-12T17:54:42;4.47;;;4.20;;